UUEE/SVO METAR and TAF weather

Enter ICAO airport designator
Station Type Date Time Source
UUEE METAR 2018/12/10 02:30 UTC NOAA

UUEE 100230Z 15003MPS 4100 -SN BR OVC006 M01/M01 Q1002 R06R/590330 R06C/590330 NOSIG


Station Type Date Time Source
UUEE Decoded METAR 2018/12/10 02:30 UTC NOAA

Moscow / Sheremet'Ye , Russia (UUEE) 55-59N 037-30E
Dec 09, 2018 - 09:30 PM EST / 2018.12.10 0230 UTC
Wind: from the SSE (150 degrees) at 7 MPH (6 KT):0
Visibility: 2 mile(s):0
Sky conditions: overcast
Weather: light snow; mist
Temperature: 30 F (-1 C)
Windchill: 23 F (-5 C):1
Dew Point: 30 F (-1 C)
Relative Humidity: 100%
Pressure (altimeter): 29.59 in. Hg (1002 hPa)
ob: UUEE 100230Z 15003MPS 4100 -SN BR OVC006 M01/M01 Q1002 R06R/590330 R06C/590330 NOSIG
cycle: 2

Station Type Date Time Source
UUEE TAF 2018/12/10 03:26 UTC NOAA

TAF
AMD UUEE 100220Z 1003/1103 16006MPS 3100 -SN OVC006 TX00/1003Z TNM01/1015Z
TEMPO 1003/1009 1100 SN BR OVC004
BECMG 1009/1010 6000 NSW BKN011 PROB40
TEMPO 1011/1021 -FZDZ OVC004
BECMG 1021/1022 2100 -RASN OVC006
TEMPO 1022/1103 0500 +SHRASN OVC003 BKN011CB


Example: see airport list